createdAt,value
2023-04-16T00:01:37.546Z,35.00
2023-04-16T00:06:41.164Z,33.50
2023-04-16T00:11:44.384Z,19.33
2023-04-16T00:16:47.987Z,38.00
2023-04-16T00:21:51.625Z,33.67
2023-04-16T00:26:54.829Z,34.50
2023-04-16T00:31:58.134Z,34.00
2023-04-16T00:37:02.054Z,35.00
2023-04-16T00:42:05.807Z,34.50
2023-04-16T00:47:09.265Z,31.00
2023-04-16T00:52:13.148Z,34.33
2023-04-16T00:57:17.952Z,27.00
2023-04-16T01:02:21.491Z,34.00
2023-04-16T01:07:26.991Z,26.00
2023-04-16T01:12:30.859Z,24.50
2023-04-16T01:17:34.072Z,28.00
2023-04-16T01:22:37.324Z,30.00
2023-04-16T01:27:40.599Z,29.00
2023-04-16T01:32:43.951Z,30.00
2023-04-16T01:37:47.215Z,27.00
2023-04-16T01:42:51.885Z,32.00
2023-04-16T01:47:55.441Z,33.00
2023-04-16T01:52:58.698Z,26.00
2023-04-16T01:58:02.591Z,25.50
2023-04-16T02:03:08.783Z,29.00
2023-04-16T02:08:12.171Z,29.00
2023-04-16T02:18:22.340Z,26.00
2023-04-16T02:23:26.220Z,25.00
2023-04-16T02:28:30.498Z,24.00
2023-04-16T02:33:33.950Z,23.00
2023-04-16T02:38:39.276Z,26.00
2023-04-16T02:43:42.769Z,31.00
2023-04-16T02:48:46.011Z,27.00
2023-04-16T02:53:49.307Z,32.00
2023-04-16T02:58:53.017Z,28.00
2023-04-16T03:03:56.721Z,22.50
2023-04-16T03:09:00.038Z,20.50
2023-04-16T03:14:03.330Z,18.00
2023-04-16T03:19:06.682Z,22.67
2023-04-16T03:24:09.856Z,19.67
2023-04-16T03:29:13.864Z,29.00
2023-04-16T03:34:18.271Z,24.00
2023-04-16T03:39:22.214Z,17.00
2023-04-16T03:44:25.454Z,21.67
2023-04-16T03:49:28.640Z,20.00
2023-04-16T03:54:35.894Z,18.00
2023-04-16T03:59:52.019Z,21.00
2023-04-16T04:04:56.324Z,19.33
2023-04-16T04:10:01.538Z,21.50
2023-04-16T04:15:05.440Z,18.00
2023-04-16T04:20:09.115Z,20.33
2023-04-16T04:25:13.362Z,21.00
2023-04-16T04:30:16.954Z,25.00
2023-04-16T04:35:20.712Z,26.50
2023-04-16T04:40:25.360Z,27.50
2023-04-16T04:45:31.684Z,12.00
2023-04-16T04:50:37.034Z,24.00
2023-04-16T04:55:41.221Z,23.00
2023-04-16T05:00:45.278Z,15.00
2023-04-16T05:05:48.494Z,11.50
2023-04-16T05:10:51.674Z,12.00
2023-04-16T05:15:54.976Z,10.00
2023-04-16T05:20:58.124Z,11.00
2023-04-16T05:26:01.941Z,15.00
2023-04-16T05:31:05.349Z,11.67
2023-04-16T05:36:08.856Z,12.00
2023-04-16T05:41:12.068Z,15.00
2023-04-16T05:46:15.525Z,15.50
2023-04-16T05:51:19.735Z,10.00
2023-04-16T05:56:23.600Z,8.00
2023-04-16T06:01:26.908Z,9.00
2023-04-16T06:06:30.629Z,8.50
2023-04-16T06:11:36.355Z,8.67
2023-04-16T06:16:39.794Z,6.00
2023-04-16T06:21:42.957Z,10.00
2023-04-16T06:26:46.529Z,10.00
2023-04-16T06:31:50.025Z,8.00
2023-04-16T06:36:54.647Z,11.00
2023-04-16T06:41:57.756Z,9.00
2023-04-16T06:47:01.134Z,10.00
2023-04-16T06:52:05.811Z,12.50
2023-04-16T06:57:11.607Z,10.50
2023-04-16T07:02:16.149Z,15.00
2023-04-16T07:07:19.566Z,14.50
2023-04-16T07:12:23.033Z,16.00
2023-04-16T07:17:26.428Z,17.00
2023-04-16T07:22:29.690Z,16.00
2023-04-16T07:27:32.804Z,14.00
2023-04-16T07:32:36.403Z,12.00
2023-04-16T07:37:39.562Z,17.00
2023-04-16T07:42:43.373Z,12.00
2023-04-16T07:47:46.801Z,17.00
2023-04-16T07:52:49.897Z,13.50
2023-04-16T07:57:53.042Z,15.00
2023-04-16T08:02:56.229Z,11.67
2023-04-16T08:07:59.640Z,17.67
2023-04-16T08:13:02.828Z,12.00
2023-04-16T08:18:07.294Z,12.00
2023-04-16T08:23:10.577Z,9.00
2023-04-16T08:28:13.734Z,9.00
2023-04-16T08:33:17.003Z,11.00
2023-04-16T08:38:20.242Z,11.00
2023-04-16T08:43:24.355Z,11.00
2023-04-16T08:48:31.198Z,7.00
2023-04-16T08:53:44.626Z,7.00
2023-04-16T08:58:49.353Z,9.00
2023-04-16T09:03:53.656Z,6.33
2023-04-16T09:08:58.448Z,7.50
2023-04-16T09:14:02.021Z,10.00
2023-04-16T09:19:05.552Z,10.33
2023-04-16T09:24:09.980Z,10.00
2023-04-16T09:29:33.597Z,9.50
2023-04-16T09:35:01.228Z,12.00
2023-04-16T09:40:05.395Z,5.50
2023-04-16T09:45:08.689Z,8.33
2023-04-16T09:50:18.226Z,10.00
2023-04-16T09:55:28.014Z,10.00
2023-04-16T10:00:31.744Z,8.00
2023-04-16T10:05:35.408Z,8.00
2023-04-16T10:10:38.602Z,6.00
2023-04-16T10:15:41.953Z,5.67
2023-04-16T10:20:45.626Z,4.50
2023-04-16T10:25:50.093Z,5.50
2023-04-16T10:30:54.074Z,5.00
2023-04-16T10:36:27.339Z,4.00
2023-04-16T10:41:32.906Z,3.50
2023-04-16T10:46:41.122Z,4.00
2023-04-16T10:51:53.348Z,4.00
2023-04-16T10:56:58.566Z,5.00
2023-04-16T11:02:07.518Z,3.00
2023-04-16T11:07:19.609Z,5.33
2023-04-16T11:12:30.813Z,4.00
2023-04-16T11:17:38.365Z,4.00
2023-04-16T11:22:42.483Z,4.00
2023-04-16T11:27:45.594Z,4.33
2023-04-16T11:32:48.718Z,4.00
2023-04-16T11:37:56.899Z,5.00
2023-04-16T11:43:16.628Z,6.50
2023-04-16T11:48:19.808Z,5.00
2023-04-16T11:53:22.963Z,4.00
2023-04-16T11:58:26.348Z,5.00
2023-04-16T12:03:43.531Z,4.00
2023-04-16T12:08:47.088Z,5.00
2023-04-16T12:14:12.642Z,4.50
2023-04-16T12:19:15.773Z,3.00
2023-04-16T12:24:24.361Z,5.33
2023-04-16T12:29:30.106Z,6.00
2023-04-16T12:34:49.168Z,5.00
2023-04-16T12:39:52.945Z,5.00
2023-04-16T12:44:56.155Z,4.00
2023-04-16T12:49:59.423Z,3.00
2023-04-16T12:55:03.075Z,4.00
2023-04-16T13:00:08.177Z,3.00
2023-04-16T13:05:11.692Z,5.00
2023-04-16T13:10:14.993Z,3.00
2023-04-16T13:15:18.233Z,3.67
2023-04-16T13:20:23.891Z,3.00
2023-04-16T13:25:27.625Z,3.00
2023-04-16T13:30:31.953Z,4.00
2023-04-16T13:35:35.977Z,3.50
2023-04-16T13:40:39.310Z,4.67
2023-04-16T13:45:42.396Z,6.00
2023-04-16T13:50:45.525Z,6.00
2023-04-16T13:55:49.827Z,2.00
2023-04-16T14:00:53.446Z,5.00
2023-04-16T14:05:56.621Z,5.00
2023-04-16T14:10:59.819Z,4.00
2023-04-16T14:16:03.283Z,4.00
2023-04-16T14:21:06.530Z,5.00
2023-04-16T14:26:09.669Z,7.50
2023-04-16T14:31:12.903Z,6.00
2023-04-16T14:36:16.807Z,5.00
2023-04-16T14:41:21.198Z,5.33
2023-04-16T14:46:25.314Z,4.50
2023-04-16T14:51:28.393Z,5.33
2023-04-16T14:56:32.304Z,6.00
2023-04-16T15:01:36.396Z,5.00
2023-04-16T15:06:40.028Z,3.67
2023-04-16T15:11:43.419Z,6.00
2023-04-16T15:16:48.042Z,5.00
2023-04-16T15:21:51.903Z,7.00
2023-04-16T15:26:55.047Z,5.00
2023-04-16T15:31:58.274Z,6.00
2023-04-16T15:37:02.012Z,5.33
2023-04-16T15:42:07.412Z,7.00
2023-04-16T15:47:11.100Z,5.00
2023-04-16T15:52:14.815Z,5.00
2023-04-16T15:57:18.030Z,6.00
2023-04-16T16:02:21.370Z,4.50
2023-04-16T16:07:25.508Z,5.00
2023-04-16T16:12:29.135Z,4.00
2023-04-16T16:17:33.042Z,5.00
2023-04-16T16:22:38.415Z,6.00
2023-04-16T16:27:42.321Z,5.00
2023-04-16T16:32:45.554Z,11.50
2023-04-16T16:37:48.785Z,7.50
2023-04-16T16:42:51.934Z,7.00
2023-04-16T16:47:56.726Z,9.00
2023-04-16T16:53:00.590Z,12.00
2023-04-16T16:58:03.878Z,11.50
2023-04-16T17:03:07.239Z,15.00
2023-04-16T17:08:10.513Z,19.00
2023-04-16T17:13:15.301Z,16.00
2023-04-16T17:18:21.671Z,18.67
2023-04-16T17:23:24.930Z,24.00
2023-04-16T17:28:28.084Z,22.50
2023-04-16T17:33:31.333Z,26.00
2023-04-16T17:38:35.899Z,24.00
2023-04-16T17:43:39.181Z,24.00
2023-04-16T17:48:44.128Z,22.00
2023-04-16T17:53:47.336Z,21.00
2023-04-16T17:58:50.496Z,23.00
2023-04-16T18:03:54.033Z,22.00
2023-04-16T18:08:57.573Z,25.50
2023-04-16T18:14:00.956Z,29.00
2023-04-16T18:19:04.150Z,30.00
2023-04-16T18:24:07.673Z,28.67
2023-04-16T18:29:12.377Z,27.00
2023-04-16T18:34:16.447Z,32.00
2023-04-16T18:39:19.804Z,31.00
2023-04-16T18:44:24.493Z,33.00
2023-04-16T18:49:27.691Z,30.50
2023-04-16T18:54:30.921Z,27.00
2023-04-16T18:59:34.214Z,33.00
2023-04-16T19:04:39.394Z,30.00
2023-04-16T19:09:42.590Z,33.00
2023-04-16T19:14:45.868Z,32.50
2023-04-16T19:19:49.186Z,33.00
2023-04-16T19:24:52.454Z,30.00
2023-04-16T19:29:55.638Z,30.50
2023-04-16T19:34:58.867Z,34.00
2023-04-16T19:40:02.313Z,32.00
2023-04-16T19:45:06.585Z,31.00
2023-04-16T19:50:10.870Z,31.00
2023-04-16T19:55:14.351Z,44.00
2023-04-16T20:00:18.254Z,35.00
2023-04-16T20:05:21.370Z,37.50
2023-04-16T20:10:24.620Z,36.00
2023-04-16T20:15:27.945Z,37.00
2023-04-16T20:20:31.458Z,36.00
2023-04-16T20:25:34.588Z,36.00
2023-04-16T20:30:40.862Z,35.00
2023-04-16T20:35:44.072Z,37.50
2023-04-16T20:40:47.273Z,37.00
2023-04-16T20:45:50.470Z,38.00
2023-04-16T20:50:58.648Z,38.00
2023-04-16T20:56:01.803Z,40.00
2023-04-16T21:01:06.309Z,43.00
2023-04-16T21:06:09.470Z,40.33
2023-04-16T21:11:13.330Z,38.50
2023-04-16T21:16:16.572Z,41.00
2023-04-16T21:21:20.382Z,43.00
2023-04-16T21:26:24.405Z,42.00
2023-04-16T21:31:27.709Z,46.00
